Time;durP1;ratioP1;P1;durP2;ratioP2;P2;SDS_P1;SDS_P2;PMS_P1;PMS_P2;Temp;Humidity;BMP_temperature;BMP_pressure;BME280_temperature;BME280_humidity;BME280_pressure;Samples;Min_cycle;Max_cycle;Signal;HPM_P1;HPM_P2
2023/04/25 00:00:30;;;;;;;;;;;;;;;;;;5051620;28;20035;-72
2023/04/25 00:02:56;;;;;;;;;;;;;;;;;;5053920;28;20363;-72
2023/04/25 00:05:22;;;;;;;;;;;;;;;;;;5070537;28;19920;-72
2023/04/25 00:07:48;;;;;;;;;;;;;;;;;;5070578;28;19928;-71
2023/04/25 00:10:14;;;;;;;;;;;;;;;;;;5053559;28;19921;-70
2023/04/25 00:12:41;;;;;;;;;;;;;;;;;;5070890;28;19971;-70
2023/04/25 00:15:07;;;;;;;;;;;;;;;;;;5069156;28;19924;-71
2023/04/25 00:17:34;;;;;;;;;;;;;;;;;;5070330;28;20003;-72
2023/04/25 00:20:00;;;;;;;;;;;;;;;;;;5070021;28;19940;-73
2023/04/25 00:22:26;;;;;;;;;;;;;;;;;;5053780;28;19974;-71
2023/04/25 00:24:53;;;;;;;;;;;;;;;;;;5069938;28;19968;-71
2023/04/25 00:27:19;;;;;;;;;;;;;;;;;;5070409;28;20792;-71
2023/04/25 00:29:45;;;;;;;;;;;;;;;;;;5070056;28;19924;-71
2023/04/25 00:32:11;;;;;;;;;;;;;;;;;;5070054;28;19924;-71
2023/04/25 00:34:37;;;;;;;;;;;;;;;;;;5070023;28;20387;-71
2023/04/25 00:37:03;;;;;;;;;;;;;;;;;;5069981;28;19990;-71
2023/04/25 00:39:29;;;;;;;;;;;;;;;;;;5070023;28;19918;-71
2023/04/25 00:41:55;;;;;;;;;;;;;;;;;;5068498;28;20035;-72
2023/04/25 00:44:21;;;;;;;;;;;;;;;;;;5066594;28;20288;-71
2023/04/25 00:46:47;;;;;;;;;;;;;;;;;;5069858;28;20358;-72
2023/04/25 00:49:15;;;;;;;;;;;;;;;;;;5053639;28;20040;-72
2023/04/25 00:51:41;;;;;;;;;;;;;;;;;;5069641;28;20375;-72
2023/04/25 00:54:07;;;;;;;;;;;;;;;;;;5070320;28;19927;-72
2023/04/25 00:56:33;;;;;;;;;;;;;;;;;;5069137;28;20379;-73
2023/04/25 00:58:59;;;;;;;;;;;;;;;;;;5069093;28;19992;-72
2023/04/25 01:01:25;;;;;;;;;;;;;;;;;;5068572;28;19928;-73
2023/04/25 01:03:51;;;;;;;;;;;;;;;;;;5068969;28;19920;-73
2023/04/25 01:06:17;;;;;;;;;;;;;;;;;;5068797;28;19916;-72
2023/04/25 01:08:43;;;;;;;;;;;;;;;;;;5068420;28;19976;-72
2023/04/25 01:11:09;;;;;;;;;;;;;;;;;;5066946;28;19925;-73
2023/04/25 01:13:35;;;;;;;;;;;;;;;;;;5100967;28;19920;-70
2023/04/25 01:16:00;;;;;;;;;;;;;;;;;;5067410;28;19924;-71
2023/04/25 01:18:26;;;;;;;;;;;;;;;;;;5068320;28;20282;-72
2023/04/25 01:20:52;;;;;;;;;;;;;;;;;;5067739;28;19974;-71
2023/04/25 01:23:18;;;;;;;;;;;;;;;;;;5069432;28;19916;-71
2023/04/25 01:25:45;;;;;;;;;;;;;;;;;;5051803;28;20307;-71
2023/04/25 01:28:10;;;;;;;;;;;;;;;;;;5067111;28;19927;-71
2023/04/25 01:30:36;;;;;;;;;;;;;;;;;;5067896;28;20376;-72
2023/04/25 01:33:02;;;;;;;;;;;;;;;;;;5066400;28;19916;-72
2023/04/25 01:35:28;;;;;;;;;;;;;;;;;;5067830;28;19920;-72
2023/04/25 01:37:54;;;;;;;;;;;;;;;;;;5050704;28;20007;-72
2023/04/25 01:40:20;;;;;;;;;;;;;;;;;;5067344;28;19947;-72
2023/04/25 01:42:46;;;;;;;;;;;;;;;;;;5068333;28;20397;-72
2023/04/25 01:45:12;;;;;;;;;;;;;;;;;;5066953;28;19960;-72
2023/04/25 01:47:39;;;;;;;;;;;;;;;;;;5067404;28;19917;-72
2023/04/25 01:50:05;;;;;;;;;;;;;;;;;;5051206;28;19927;-72
2023/04/25 01:52:31;;;;;;;;;;;;;;;;;;5067645;28;19924;-72
2023/04/25 01:54:57;;;;;;;;;;;;;;;;;;5066916;28;19916;-72
2023/04/25 01:57:23;;;;;;;;;;;;;;;;;;5066022;28;20028;-72
2023/04/25 01:59:49;;;;;;;;;;;;;;;;;;5051540;28;19932;-72
2023/04/25 02:02:15;;;;;;;;;;;;;;;;;;5066914;28;20006;-72
2023/04/25 02:04:41;;;;;;;;;;;;;;;;;;5067501;28;19928;-72
2023/04/25 02:07:07;;;;;;;;;;;;;;;;;;5067548;28;19931;-72
2023/04/25 02:09:33;;;;;;;;;;;;;;;;;;5066916;28;19932;-72
2023/04/25 02:11:59;;;;;;;;;;;;;;;;;;5067140;28;19932;-71
2023/04/25 02:14:25;;;;;;;;;;;;;;;;;;5051805;28;21776;-72
2023/04/25 02:16:51;;;;;;;;;;;;;;;;;;5067767;28;19926;-72
2023/04/25 02:19:17;;;;;;;;;;;;;;;;;;5068775;28;19947;-72
2023/04/25 02:21:43;;;;;;;;;;;;;;;;;;5067547;28;20352;-72
2023/04/25 02:24:09;;;;;;;;;;;;;;;;;;5051438;28;19917;-72
2023/04/25 02:26:35;;;;;;;;;;;;;;;;;;5068073;28;19930;-72
2023/04/25 02:29:01;;;;;;;;;;;;;;;;;;5065396;28;19927;-72
2023/04/25 02:31:27;;;;;;;;;;;;;;;;;;5068036;28;20023;-72
2023/04/25 02:33:53;;;;;;;;;;;;;;;;;;5067907;28;19925;-72
2023/04/25 02:36:19;;;;;;;;;;;;;;;;;;5068125;28;20011;-72
2023/04/25 02:38:45;;;;;;;;;;;;;;;;;;5069150;28;19916;-71
2023/04/25 02:41:11;;;;;;;;;;;;;;;;;;5071862;28;19939;-72
2023/04/25 02:43:37;;;;;;;;;;;;;;;;;;5055303;28;19925;-71
2023/04/25 02:46:03;;;;;;;;;;;;;;;;;;5072485;28;19935;-72
2023/04/25 02:48:29;;;;;;;;;;;;;;;;;;5071979;28;20414;-72
2023/04/25 02:50:55;;;;;;;;;;;;;;;;;;5054925;28;19920;-72
2023/04/25 02:53:21;;;;;;;;;;;;;;;;;;5071978;28;19927;-72
2023/04/25 02:55:47;;;;;;;;;;;;;;;;;;5072326;28;19986;-72
2023/04/25 02:58:13;;;;;;;;;;;;;;;;;;5071998;28;19920;-71
2023/04/25 03:00:39;;;;;;;;;;;;;;;;;;5071557;28;19920;-72
2023/04/25 03:03:05;;;;;;;;;;;;;;;;;;5069181;28;20536;-72
2023/04/25 03:05:31;;;;;;;;;;;;;;;;;;5071427;28;19930;-72
2023/04/25 03:07:57;;;;;;;;;;;;;;;;;;5070242;28;19924;-72
2023/04/25 03:10:23;;;;;;;;;;;;;;;;;;5071292;28;20328;-72
2023/04/25 03:12:49;;;;;;;;;;;;;;;;;;5071852;28;19924;-72
2023/04/25 03:15:16;;;;;;;;;;;;;;;;;;5071575;28;19924;-72
2023/04/25 03:17:42;;;;;;;;;;;;;;;;;;5070171;28;19921;-72
2023/04/25 03:20:08;;;;;;;;;;;;;;;;;;5071882;28;19916;-72
2023/04/25 03:22:34;;;;;;;;;;;;;;;;;;5071220;28;20363;-72
2023/04/25 03:25:00;;;;;;;;;;;;;;;;;;5069179;28;19920;-71
2023/04/25 03:27:26;;;;;;;;;;;;;;;;;;5069559;28;19978;-71
2023/04/25 03:29:52;;;;;;;;;;;;;;;;;;5069999;28;20019;-71
2023/04/25 03:32:18;;;;;;;;;;;;;;;;;;5071362;28;19920;-72
2023/04/25 03:34:44;;;;;;;;;;;;;;;;;;5053951;28;20502;-71
2023/04/25 03:37:10;;;;;;;;;;;;;;;;;;5071565;28;20008;-72
2023/04/25 03:39:37;;;;;;;;;;;;;;;;;;5071358;28;19917;-71
2023/04/25 03:42:03;;;;;;;;;;;;;;;;;;5070463;28;20015;-71
2023/04/25 03:44:29;;;;;;;;;;;;;;;;;;5071283;28;20402;-71
2023/04/25 03:46:55;;;;;;;;;;;;;;;;;;5054553;28;19932;-72
2023/04/25 03:49:21;;;;;;;;;;;;;;;;;;5071018;28;19920;-72
2023/04/25 03:51:47;;;;;;;;;;;;;;;;;;5054427;28;19985;-72
2023/04/25 03:54:13;;;;;;;;;;;;;;;;;;5071349;28;19916;-72
2023/04/25 03:56:39;;;;;;;;;;;;;;;;;;5054238;28;20382;-72
2023/04/25 03:59:05;;;;;;;;;;;;;;;;;;5070563;28;20406;-72
2023/04/25 04:01:31;;;;;;;;;;;;;;;;;;5070717;28;19923;-72
2023/04/25 04:03:57;;;;;;;;;;;;;;;;;;5054345;28;20280;-72
2023/04/25 04:06:23;;;;;;;;;;;;;;;;;;5070897;28;19924;-72
2023/04/25 04:08:49;;;;;;;;;;;;;;;;;;5053673;28;19963;-72
2023/04/25 04:11:15;;;;;;;;;;;;;;;;;;5070139;28;20014;-72
2023/04/25 04:13:41;;;;;;;;;;;;;;;;;;5054049;28;19946;-72
2023/04/25 04:16:07;;;;;;;;;;;;;;;;;;5071490;28;19929;-72
2023/04/25 04:18:33;;;;;;;;;;;;;;;;;;5070169;28;19923;-72
2023/04/25 04:20:59;;;;;;;;;;;;;;;;;;5104190;28;20346;-72
2023/04/25 04:23:27;;;;;;;;;;;;;;;;;;5070725;28;20318;-72
2023/04/25 04:25:53;;;;;;;;;;;;;;;;;;5069888;28;20011;-72
2023/04/25 04:28:20;;;;;;;;;;;;;;;;;;5069822;28;19938;-72
2023/04/25 04:30:46;;;;;;;;;;;;;;;;;;5104104;28;19986;-72
2023/04/25 04:33:12;;;;;;;;;;;;;;;;;;5070125;28;19926;-72
2023/04/25 04:35:38;;;;;;;;;;;;;;;;;;5070425;28;19985;-72
2023/04/25 04:38:04;;;;;;;;;;;;;;;;;;5070104;28;20420;-72
2023/04/25 04:40:31;;;;;;;;;;;;;;;;;;5069849;28;20022;-72
2023/04/25 04:42:57;;;;;;;;;;;;;;;;;;5103271;28;19924;-72
2023/04/25 04:45:23;;;;;;;;;;;;;;;;;;5069526;28;19920;-71
2023/04/25 04:47:49;;;;;;;;;;;;;;;;;;5069398;28;20463;-71
2023/04/25 04:50:16;;;;;;;;;;;;;;;;;;5069505;28;20391;-71
2023/04/25 04:52:41;;;;;;;;;;;;;;;;;;5069572;28;20515;-72
2023/04/25 04:55:07;;;;;;;;;;;;;;;;;;5068039;28;19946;-72
2023/04/25 04:57:34;;;;;;;;;;;;;;;;;;5069221;28;20280;-71
2023/04/25 05:00:00;;;;;;;;;;;;;;;;;;5068960;28;20284;-71
2023/04/25 05:02:26;;;;;;;;;;;;;;;;;;5068532;28;20384;-72
2023/04/25 05:04:52;;;;;;;;;;;;;;;;;;5069540;28;19924;-71
2023/04/25 05:08:13;;;;;;;6.82;1.45;;;5.70;99.90;;;;;;5169354;27;20110;-71
2023/04/25 05:10:39;;;;;;;10.20;1.50;;;5.20;99.90;;;;;;5145049;27;20038;-71
2023/04/25 05:13:05;;;;;;;4.97;1.30;;;5.10;99.90;;;;;;5141851;27;20432;-71
2023/04/25 05:15:31;;;;;;;5.05;1.25;;;5.00;99.90;;;;;;5132123;27;20035;-72
2023/04/25 05:17:56;;;;;;;4.75;1.20;;;4.90;99.90;;;;;;5164753;27;20066;-72
2023/04/25 05:20:22;;;;;;;3.90;1.08;;;4.80;99.90;;;;;;5148289;27;20078;-71
2023/04/25 05:22:48;;;;;;;4.97;1.60;;;4.70;99.90;;;;;;5148033;27;20030;-71
2023/04/25 05:25:13;;;;;;;4.53;1.10;;;4.60;99.90;;;;;;5169462;27;20462;-72
2023/04/25 05:27:39;;;;;;;2.83;0.98;;;4.60;99.90;;;;;;5171633;27;20112;-71
2023/04/25 05:30:06;;;;;;;4.03;0.90;;;4.50;99.90;;;;;;5144774;27;20047;-71
2023/04/25 05:32:31;;;;;;;3.30;0.88;;;4.40;99.90;;;;;;5144772;27;20042;-71
2023/04/25 05:34:57;;;;;;;2.33;0.70;;;4.40;99.90;;;;;;5175977;27;20053;-71
2023/04/25 05:37:23;;;;;;;4.07;0.80;;;4.40;99.90;;;;;;5143158;27;20087;-72
2023/04/25 05:39:48;;;;;;;5.65;1.13;;;4.50;99.90;;;;;;5170556;27;20300;-72
2023/04/25 05:42:14;;;;;;;4.03;0.90;;;4.60;99.90;;;;;;5168626;27;20038;-72
2023/04/25 05:44:40;;;;;;;2.53;0.75;;;4.70;99.90;;;;;;5146919;27;20081;-72
2023/04/25 05:47:06;;;;;;;2.92;1.20;;;4.70;99.90;;;;;;5170465;27;20501;-72
2023/04/25 05:49:31;;;;;;;4.38;1.20;;;4.90;99.90;;;;;;5162042;27;20592;-72
2023/04/25 05:51:57;;;;;;;3.95;1.10;;;5.00;99.90;;;;;;5126088;27;20043;-72
2023/04/25 05:54:23;;;;;;;7.57;1.42;;;5.20;99.90;;;;;;5169739;27;20034;-72
2023/04/25 05:56:48;;;;;;;4.03;1.23;;;5.40;99.90;;;;;;5154883;27;20079;-72
2023/04/25 05:59:14;;;;;;;3.72;0.95;;;5.40;99.90;;;;;;5169474;27;20476;-72
2023/04/25 06:01:40;;;;;;;5.97;1.40;;;5.50;99.90;;;;;;5177479;27;20046;-72
2023/04/25 06:04:06;;;;;;;8.38;1.40;;;5.50;99.90;;;;;;5130965;27;20170;-72
2023/04/25 06:06:31;;;;;;;5.18;1.73;;;5.50;99.90;;;;;;5158893;27;20051;-73
2023/04/25 06:08:57;;;;;;;4.78;1.23;;;5.50;99.90;;;;;;5148438;27;20041;-72
2023/04/25 06:11:22;;;;;;;7.32;1.17;;;5.50;99.90;;;;;;5154107;27;20034;-71
2023/04/25 06:13:48;;;;;;;6.03;1.35;;;5.50;99.90;;;;;;5161107;27;20031;-71
2023/04/25 06:16:14;;;;;;;5.85;1.58;;;5.60;99.90;;;;;;5132182;27;20074;-72
2023/04/25 06:18:41;;;;;;;4.85;1.20;;;5.60;99.90;;;;;;5123268;27;20502;-72
2023/04/25 06:21:06;;;;;;;4.95;1.20;;;5.60;99.90;;;;;;5146882;27;20049;-72
2023/04/25 06:23:32;;;;;;;8.55;1.60;;;5.70;99.90;;;;;;5151480;27;20042;-72
2023/04/25 06:25:58;;;;;;;7.55;1.08;;;5.90;99.90;;;;;;5149796;27;20046;-72
2023/04/25 06:28:24;;;;;;;7.85;1.50;;;6.60;99.90;;;;;;5149957;27;20360;-72
2023/04/25 06:30:50;;;;;;;3.47;1.30;;;7.10;99.90;;;;;;5133294;27;20042;-72
2023/04/25 06:33:16;;;;;;;10.38;1.67;;;7.50;99.90;;;;;;5132884;27;20035;-69
2023/04/25 06:35:42;;;;;;;5.25;1.65;;;7.60;28.60;;;;;;5141974;27;20523;-71
2023/04/25 06:38:08;;;;;;;6.50;1.58;;;8.10;1.00;;;;;;5148463;27;20043;-71
2023/04/25 06:40:34;;;;;;;11.45;1.77;;;8.40;1.00;;;;;;5142794;27;21271;-71
2023/04/25 06:43:00;;;;;;;8.30;1.55;;;8.40;99.90;;;;;;5134824;27;20038;-71
2023/04/25 06:45:25;;;;;;;6.53;1.70;;;8.30;1.00;;;;;;5139491;27;20034;-71
2023/04/25 06:47:51;;;;;;;9.40;1.67;;;8.10;99.90;;;;;;5132525;27;20080;-71
2023/04/25 06:50:17;;;;;;;7.43;1.58;;;7.90;99.90;;;;;;5148956;27;20035;-72
2023/04/25 06:52:43;;;;;;;7.03;1.38;;;7.40;1.00;;;;;;5143641;27;20051;-72
2023/04/25 06:55:09;;;;;;;5.47;1.30;;;7.10;1.00;;;;;;5150654;27;20031;-72
2023/04/25 06:57:34;;;;;;;7.10;1.50;;;6.90;5.90;;;;;;5137315;27;20051;-72
2023/04/25 07:00:00;;;;;;;6.43;1.58;;;6.80;37.20;;;;;;5133205;27;20084;-72
2023/04/25 07:02:26;;;;;;;6.72;1.48;;;6.70;1.00;;;;;;5136698;27;20045;-73
2023/04/25 07:04:51;;;;;;;2.75;0.90;;;6.70;1.00;;;;;;5134591;27;20045;-71
2023/04/25 07:07:17;;;;;;;5.78;1.45;;;6.80;1.00;;;;;;5124098;27;20077;-71
2023/04/25 07:09:43;;;;;;;5.25;1.23;;;6.90;1.00;;;;;;5136784;27;20039;-71
2023/04/25 07:12:08;;;;;;;5.10;1.30;;;7.20;15.50;;;;;;5140643;27;20416;-72
2023/04/25 07:14:34;;;;;;;4.70;1.20;;;7.20;1.00;;;;;;5140515;27;20138;-72
2023/04/25 07:17:00;;;;;;;5.10;1.10;;;7.30;1.00;;;;;;5141400;27;20031;-72
2023/04/25 07:19:26;;;;;;;4.13;1.00;;;7.30;1.00;;;;;;5129400;27;20442;-72
2023/04/25 07:21:52;;;;;;;10.55;1.75;;;7.50;1.00;;;;;;5141651;27;20074;-72
2023/04/25 07:24:18;;;;;;;3.30;0.95;;;7.40;99.90;;;;;;5143987;27;20034;-72
2023/04/25 07:26:44;;;;;;;3.72;1.05;;;7.50;99.90;;;;;;5142378;27;20035;-72
2023/04/25 07:29:10;;;;;;;4.32;0.88;;;7.40;99.90;;;;;;5131408;27;20050;-72
2023/04/25 07:31:36;;;;;;;5.72;1.30;;;7.60;99.90;;;;;;5117741;27;20039;-72
2023/04/25 07:34:02;;;;;;;3.75;1.15;;;7.50;99.90;;;;;;5150111;27;20393;-72
2023/04/25 07:36:28;;;;;;;5.18;1.05;;;7.50;99.90;;;;;;5135751;27;20494;-72
2023/04/25 07:38:53;;;;;;;4.60;1.10;;;7.70;99.90;;;;;;5148191;27;20077;-72
2023/04/25 07:41:19;;;;;;;5.60;1.30;;;7.90;99.90;;;;;;5144795;27;20042;-71
2023/04/25 07:43:45;;;;;;;6.80;1.20;;;7.70;99.90;;;;;;5143929;27;20050;-72
2023/04/25 07:46:10;;;;;;;6.18;0.80;;;7.80;99.90;;;;;;5104046;27;20092;-71
2023/04/25 07:48:36;;;;;;;2.17;0.65;;;7.70;99.90;;;;;;5136216;27;20473;-71
2023/04/25 07:51:04;;;;;;;2.70;0.70;;;7.60;99.90;;;;;;5119155;27;20433;-72
2023/04/25 07:53:30;;;;;;;2.75;0.60;;;7.50;99.90;;;;;;5142251;27;20401;-72
2023/04/25 07:55:56;;;;;;;2.97;0.90;;;7.50;99.90;;;;;;5141783;27;20064;-72
2023/04/25 07:58:21;;;;;;;3.92;1.08;;;7.60;99.90;;;;;;5125475;27;20895;-73
2023/04/25 08:00:48;;;;;;;2.85;0.80;;;7.60;99.90;;;;;;5136335;27;20034;-72
2023/04/25 08:03:14;;;;;;;2.17;0.70;;;8.20;99.90;;;;;;5135347;27;20038;-73
2023/04/25 08:05:40;;;;;;;4.15;0.80;;;8.60;99.90;;;;;;5131677;27;20394;-72
2023/04/25 08:08:06;;;;;;;3.67;0.88;;;8.60;99.90;;;;;;5135335;27;20082;-72
2023/04/25 08:10:32;;;;;;;;;;;8.60;99.90;;;;;;5132272;27;20046;-72
2023/04/25 08:12:58;;;;;;;2.83;0.80;;;7.70;99.90;;;;;;5134346;27;19915;-72
2023/04/25 08:15:25;;;;;;;5.13;0.90;;;6.80;1.00;;;;;;5144465;27;20038;-72
2023/04/25 08:17:50;;;;;;;3.50;0.68;;;6.10;59.20;;;;;;5122095;27;20047;-72
2023/04/25 08:20:16;;;;;;;1.83;0.60;;;5.50;99.90;;;;;;5135830;27;20488;-72
2023/04/25 08:22:42;;;;;;;3.75;0.80;;;5.40;99.90;;;;;;5145342;27;20049;-72
2023/04/25 08:25:08;;;;;;;2.22;0.80;;;5.40;99.90;;;;;;5140184;27;20043;-72
2023/04/25 08:27:34;;;;;;;2.38;0.65;;;5.70;99.90;;;;;;5131582;27;20039;-72
2023/04/25 08:30:00;;;;;;;2.72;0.75;;;5.70;99.90;;;;;;5129845;27;20230;-71
2023/04/25 08:32:26;;;;;;;2.28;0.70;;;5.90;99.90;;;;;;5135546;27;20163;-72
2023/04/25 08:34:53;;;;;;;3.85;0.90;;;6.00;99.90;;;;;;5140446;27;20047;-72
2023/04/25 08:37:20;;;;;;;2.20;0.73;;;5.90;99.90;;;;;;5120178;27;20428;-72
2023/04/25 08:39:47;;;;;;;2.65;0.85;;;6.00;91.50;;;;;;5114640;27;20676;-72
2023/04/25 08:42:15;;;;;;;4.45;0.90;;;6.20;1.00;;;;;;5136365;27;20180;-72
2023/04/25 08:44:41;;;;;;;5.00;1.13;;;6.50;1.00;;;;;;5140217;27;20971;-72
2023/04/25 08:47:07;;;;;;;2.40;0.80;;;6.70;1.00;;;;;;5138736;27;20116;-72
2023/04/25 08:49:33;;;;;;;2.55;0.85;;;6.90;1.00;;;;;;5145511;27;20038;-71
2023/04/25 08:52:02;;;;;;;5.15;1.00;;;7.10;1.00;;;;;;5145408;27;20034;-71
2023/04/25 08:54:28;;;;;;;5.18;1.10;;;7.30;1.00;;;;;;5138186;27;20043;-72
2023/04/25 08:56:56;;;;;;;;;;;7.50;1.00;;;;;;5134382;27;20047;-71
2023/04/25 08:59:22;;;;;;;2.63;0.82;;;7.50;99.90;;;;;;5131946;27;19916;-72
2023/04/25 09:01:50;;;;;;;4.38;0.93;;;7.60;99.90;;;;;;5117872;27;20043;-72
2023/04/25 09:04:15;;;;;;;2.40;0.77;;;7.60;99.90;;;;;;5148807;27;20253;-71
2023/04/25 09:06:41;;;;;;;3.45;1.00;;;7.90;99.90;;;;;;5139212;27;20635;-71
2023/04/25 09:09:09;;;;;;;4.00;1.08;;;8.10;99.90;;;;;;5131323;27;20043;-72
2023/04/25 09:11:36;;;;;;;4.30;1.15;;;8.20;99.90;;;;;;5145640;27;20052;-72
2023/04/25 09:14:16;;;;;;;4.28;1.00;;;8.50;99.90;;;;;;5144820;27;20486;-72
2023/04/25 09:17:03;;;;;;;4.05;1.10;;;8.70;99.90;;;;;;5144634;27;20126;-72
2023/04/25 09:19:35;;;;;;;6.13;1.60;;;8.90;99.90;;;;;;5144386;27;20050;-72
2023/04/25 09:22:03;;;;;;;5.43;1.27;;;9.20;99.90;;;;;;5141160;27;20039;-72
2023/04/25 09:24:41;;;;;;;6.80;1.33;;;9.30;99.90;;;;;;5117355;27;20393;-72
2023/04/25 09:27:13;;;;;;;6.13;1.23;;;9.60;99.90;;;;;;5145164;27;20074;-72
2023/04/25 09:29:40;;;;;;;8.05;1.58;;;9.50;99.90;;;;;;5142560;27;20054;-72
2023/04/25 09:32:23;;;;;;;5.00;1.05;;;8.90;99.90;;;;;;5134219;27;20035;-72
2023/04/25 09:34:51;;;;;;;4.90;0.88;;;7.90;99.90;;;;;;5138090;27;20050;-72
2023/04/25 09:37:27;;;;;;;3.67;1.00;;;7.30;99.90;;;;;;5134219;27;20039;-72
2023/04/25 09:39:55;;;;;;;7.07;1.20;;;7.20;1.00;;;;;;5146900;27;20070;-72
2023/04/25 09:42:26;;;;;;;4.63;1.38;;;7.60;1.00;;;;;;5136527;27;20468;-71
2023/04/25 09:44:56;;;;;;;5.50;1.33;;;8.20;1.00;;;;;;5120679;27;20070;-71
2023/04/25 09:47:24;;;;;;;8.23;1.33;;;9.00;1.00;;;;;;5133534;27;20442;-71
2023/04/25 09:49:51;;;;;;;6.13;1.30;;;9.70;99.90;;;;;;5140474;27;20091;-71
2023/04/25 09:52:22;;;;;;;3.20;1.23;;;9.80;99.90;;;;;;5134465;27;20035;-73
2023/04/25 09:54:49;;;;;;;4.00;1.10;;;9.70;99.90;;;;;;5135108;27;20046;-73
2023/04/25 09:57:23;;;;;;;6.07;1.35;;;9.20;99.90;;;;;;5151446;27;20050;-73
2023/04/25 09:59:54;;;;;;;5.78;1.42;;;8.60;99.90;;;;;;5138969;27;20570;-73
2023/04/25 10:02:22;;;;;;;4.45;1.17;;;8.70;99.90;;;;;;5138965;27;20065;-73
2023/04/25 10:04:52;;;;;;;7.05;1.30;;;8.90;99.90;;;;;;5144562;27;20043;-73
2023/04/25 10:07:20;;;;;;;5.40;1.10;;;9.30;99.90;;;;;;5105884;27;20046;-72
2023/04/25 10:09:50;;;;;;;6.53;1.83;;;9.90;99.90;;;;;;5141404;27;20034;-71
2023/04/25 10:12:16;;;;;;;7.30;1.80;;;9.90;99.90;;;;;;5138047;27;20076;-71
2023/04/25 10:14:42;;;;;;;10.13;1.52;;;10.00;99.90;;;;;;5148932;27;20039;-71
2023/04/25 10:17:10;;;;;;;5.88;1.45;;;10.50;99.90;;;;;;5113579;27;20497;-71
2023/04/25 10:19:36;;;;;;;7.70;1.70;;;10.10;99.90;;;;;;5142032;27;20126;-71
2023/04/25 10:22:25;;;;;;;4.75;1.48;;;9.90;99.90;;;;;;5134056;27;20126;-71
2023/04/25 10:24:52;;;;;;;4.30;1.50;;;9.40;99.90;;;;;;5121368;27;20564;-71
2023/04/25 10:27:18;;;;;;;3.38;1.00;;;9.20;99.90;;;;;;5145417;27;20043;-71
2023/04/25 10:29:44;;;;;;;;;;;8.80;99.90;;;;;;5119326;27;20076;-71
2023/04/25 10:32:10;;;;;;;3.97;1.23;;;8.60;1.00;;;;;;5136692;27;19923;-71
2023/04/25 10:34:46;;;;;;;3.85;1.20;;;8.90;1.00;;;;;;5122978;27;20035;-71
2023/04/25 10:37:13;;;;;;;4.53;1.25;;;8.80;1.00;;;;;;5147584;27;20039;-71
2023/04/25 10:39:41;;;;;;;;;;;8.70;1.00;;;;;;5138965;27;20047;-71
2023/04/25 10:42:07;;;;;;;6.47;1.45;;;8.80;1.00;;;;;;5136172;27;19960;-71
2023/04/25 10:44:34;;;;;;;7.25;1.08;;;9.00;99.90;;;;;;5131414;27;20061;-69
2023/04/25 10:47:02;;;;;;;4.47;1.00;;;8.50;99.90;;;;;;5144478;27;20060;-71
2023/04/25 10:49:42;;;;;;;2.63;0.80;;;8.20;99.90;;;;;;5131161;27;20034;-71
2023/04/25 10:52:24;;;;;;;3.95;1.10;;;7.90;99.90;;;;;;5140510;27;20035;-71
2023/04/25 10:54:56;;;;;;;5.05;1.38;;;7.90;99.90;;;;;;5146394;27;20500;-71
2023/04/25 10:57:39;;;;;;;4.70;1.10;;;7.80;99.90;;;;;;5141886;27;20115;-71
2023/04/25 11:00:15;;;;;;;5.35;1.10;;;8.00;99.90;;;;;;5141305;27;20046;-71
2023/04/25 11:02:42;;;;;;;3.28;1.17;;;8.50;99.90;;;;;;5135910;27;20524;-71
2023/04/25 11:05:10;;;;;;;8.02;1.30;;;9.00;99.90;;;;;;5124350;27;20389;-72
2023/04/25 11:07:49;;;;;;;4.50;1.15;;;9.40;99.90;;;;;;5139072;27;20050;-72
2023/04/25 11:10:15;;;;;;;7.47;1.20;;;9.40;99.90;;;;;;5135218;27;20149;-72
2023/04/25 11:12:41;;;;;;;5.75;0.95;;;9.30;45.80;;;;;;5143948;27;20153;-72
2023/04/25 11:15:07;;;;;;;3.13;1.13;;;9.70;46.00;;;;;;5139417;27;20185;-71
2023/04/25 11:17:34;;;;;;;4.85;1.17;;;9.70;48.00;;;;;;5140050;27;20043;-71
2023/04/25 11:20:00;;;;;;;;;;;10.00;62.60;;;;;;5149031;27;20459;-72
2023/04/25 11:22:27;;;;;;;3.58;1.02;;;10.10;16.40;;;;;;5143418;27;19926;-72
2023/04/25 11:24:53;;;;;;;6.40;1.20;;;10.30;1.00;;;;;;5137943;27;20570;-72
2023/04/25 11:27:20;;;;;;;4.75;1.02;;;10.70;1.00;;;;;;5147390;27;20158;-72
2023/04/25 11:29:47;;;;;;;4.20;1.00;;;11.10;1.00;;;;;;5148233;27;20423;-72
2023/04/25 11:32:15;;;;;;;5.25;1.30;;;10.80;1.00;;;;;;5135010;27;20039;-72
2023/04/25 11:34:45;;;;;;;5.35;1.30;;;11.00;1.60;;;;;;5122526;27;20046;-72
2023/04/25 11:37:12;;;;;;;5.75;1.23;;;11.30;39.50;;;;;;5142625;27;20102;-71
2023/04/25 11:39:38;;;;;;;4.22;1.38;;;11.60;11.70;;;;;;5132366;27;20497;-72
2023/04/25 11:42:05;;;;;;;9.65;1.20;;;11.20;1.00;;;;;;5133924;27;20043;-73
2023/04/25 11:44:31;;;;;;;6.15;1.30;;;11.60;1.00;;;;;;5119171;27;20049;-72
2023/04/25 11:46:57;;;;;;;2.95;0.95;;;11.20;1.00;;;;;;5130129;27;20141;-72
2023/04/25 11:49:24;;;;;;;3.40;1.08;;;10.80;1.00;;;;;;5131265;27;20035;-72
2023/04/25 11:51:50;;;;;;;4.22;1.20;;;10.90;1.00;;;;;;5140022;27;20398;-73
2023/04/25 11:54:16;;;;;;;6.78;1.00;;;10.40;1.00;;;;;;5137990;27;20043;-73
2023/04/25 11:56:43;;;;;;;6.45;1.20;;;9.90;1.00;;;;;;5131360;27;20031;-73
2023/04/25 11:59:09;;;;;;;4.78;1.20;;;9.30;1.00;;;;;;5146051;27;20047;-73
2023/04/25 12:01:36;;;;;;;5.82;1.20;;;9.60;1.00;;;;;;5130795;27;20090;-70
2023/04/25 12:04:23;;;;;;;6.65;1.20;;;9.30;5.80;;;;;;5141487;27;20074;-70
2023/04/25 12:06:54;;;;;;;5.10;1.50;;;9.60;7.80;;;;;;5144367;27;20051;-70
2023/04/25 12:09:41;;;;;;;5.10;1.20;;;9.20;10.60;;;;;;5131787;27;20063;-70
2023/04/25 12:12:10;;;;;;;7.65;1.55;;;9.40;63.70;;;;;;5133673;27;20100;-70
2023/04/25 12:14:36;;;;;;;4.53;1.08;;;9.20;47.60;;;;;;5149216;27;20440;-70
2023/04/25 12:17:03;;;;;;;5.15;1.38;;;9.20;89.10;;;;;;5149354;27;20042;-71
2023/04/25 12:19:34;;;;;;;5.30;1.25;;;9.30;65.80;;;;;;5131246;27;20143;-71
2023/04/25 12:22:18;;;;;;;6.15;1.38;;;9.10;1.00;;;;;;5143466;27;20074;-70
2023/04/25 12:24:45;;;;;;;4.47;1.23;;;9.20;25.80;;;;;;5147783;27;20057;-70
2023/04/25 12:27:15;;;;;;;3.30;1.02;;;10.00;57.90;;;;;;5126178;27;20128;-70
2023/04/25 12:29:53;;;;;;;5.18;1.10;;;10.40;7.40;;;;;;5130959;27;20039;-70
2023/04/25 12:32:19;;;;;;;6.40;1.30;;;11.10;10.60;;;;;;5143007;27;20135;-71
2023/04/25 12:34:45;;;;;;;7.03;1.63;;;11.20;1.00;;;;;;5133605;27;20038;-70
2023/04/25 12:37:11;;;;;;;7.80;1.20;;;10.50;1.00;;;;;;5135379;27;20052;-70
2023/04/25 12:39:37;;;;;;;;;;;9.80;1.00;;;;;;5112347;27;20051;-70
2023/04/25 12:42:03;;;;;;;6.80;1.17;;;9.70;1.00;;;;;;5141331;27;19926;-70
2023/04/25 12:44:29;;;;;;;6.15;1.35;;;9.70;12.40;;;;;;5117432;27;20046;-71
2023/04/25 12:46:54;;;;;;;3.95;1.20;;;9.90;1.00;;;;;;5129466;27;20095;-72
2023/04/25 12:49:20;;;;;;;6.20;1.05;;;10.10;1.00;;;;;;5132858;27;20043;-72
2023/04/25 12:51:46;;;;;;;5.55;1.45;;;10.60;1.00;;;;;;5131822;27;20474;-70
2023/04/25 12:54:14;;;;;;;4.43;1.38;;;11.10;1.00;;;;;;5135664;27;20039;-70
2023/04/25 12:56:40;;;;;;;6.53;1.33;;;11.20;1.00;;;;;;5138635;27;20474;-72
2023/04/25 12:59:06;;;;;;;5.75;1.27;;;10.90;1.00;;;;;;5133562;27;20444;-71
2023/04/25 13:01:32;;;;;;;6.93;1.42;;;10.40;1.00;;;;;;5130332;27;20035;-70
2023/04/25 13:03:58;;;;;;;6.68;1.27;;;10.80;1.00;;;;;;5139538;27;20038;-70
2023/04/25 13:06:24;;;;;;;5.22;1.20;;;10.90;1.00;;;;;;5135512;27;20051;-71
2023/04/25 13:08:50;;;;;;;5.40;1.60;;;11.30;2.60;;;;;;5132933;27;20034;-71
2023/04/25 13:11:15;;;;;;;5.20;1.20;;;10.80;8.20;;;;;;5135557;27;20153;-72
2023/04/25 13:13:42;;;;;;;5.40;1.38;;;10.00;1.00;;;;;;5119425;27;20035;-71
2023/04/25 13:16:08;;;;;;;5.70;1.50;;;9.40;42.80;;;;;;5119169;27;20050;-71
2023/04/25 13:18:34;;;;;;;;;;;9.10;61.00;;;;;;5140726;27;20047;-71
2023/04/25 13:21:00;;;;;;;3.88;1.10;;;9.00;84.40;;;;;;5143514;27;19919;-71
2023/04/25 13:23:28;;;;;;;8.70;1.50;;;8.80;99.90;;;;;;5137036;27;20058;-71
2023/04/25 13:25:57;;;;;;;3.88;1.17;;;9.50;99.60;;;;;;5137587;27;20027;-70
2023/04/25 13:28:23;;;;;;;3.60;1.17;;;10.00;55.50;;;;;;5144770;27;20417;-71
2023/04/25 13:30:49;;;;;;;5.90;1.45;;;10.20;15.70;;;;;;5148797;27;20048;-71
2023/04/25 13:33:15;;;;;;;4.38;1.30;;;10.60;54.80;;;;;;5118351;27;20474;-71
2023/04/25 13:35:41;;;;;;;5.40;1.40;;;10.70;60.40;;;;;;5137675;27;20401;-71
2023/04/25 13:38:07;;;;;;;11.13;1.80;;;10.70;22.50;;;;;;5152223;27;20114;-71
2023/04/25 13:40:33;;;;;;;5.13;1.50;;;10.30;1.00;;;;;;5145693;27;20034;-71
2023/04/25 13:42:59;;;;;;;8.18;1.38;;;10.00;1.00;;;;;;5147523;27;20087;-72
2023/04/25 13:45:25;;;;;;;4.15;1.30;;;10.00;1.00;;;;;;5137046;27;20046;-71
2023/04/25 13:47:51;;;;;;;5.00;1.15;;;10.10;6.10;;;;;;5140266;27;20100;-71
2023/04/25 13:50:16;;;;;;;2.67;0.93;;;10.30;1.00;;;;;;5147528;27;20461;-74
2023/04/25 13:52:43;;;;;;;4.32;1.00;;;10.30;1.00;;;;;;5141908;27;20126;-70
2023/04/25 13:55:09;;;;;;;5.20;0.95;;;10.10;1.00;;;;;;5135958;27;20514;-69
2023/04/25 13:57:35;;;;;;;;;;;10.30;1.00;;;;;;5144062;27;20047;-69
2023/04/25 14:00:08;;;;;;;6.65;1.50;;;10.50;1.00;;;;;;5148617;27;20060;-70
2023/04/25 14:02:38;;;;;;;4.43;1.27;;;10.30;1.00;;;;;;5128335;27;20045;-71
2023/04/25 14:05:04;;;;;;;7.00;1.45;;;10.40;1.00;;;;;;5140710;27;20038;-71
2023/04/25 14:07:30;;;;;;;5.32;1.42;;;10.00;1.00;;;;;;5135759;27;20047;-71